SBGO/GYN METAR and TAF weather

Enter ICAO airport designator
Station Type Date Time Source
SBGO METAR 2022/05/24 12:00 UTC NOAA

SBGO 241200Z 00000KT CAVOK 21/13 Q1022


Station Type Date Time Source
SBGO Decoded METAR 2022/05/24 12:00 UTC NOAA

Goiania Aeroporto , Brazil (SBGO) 16-38S 049-13W
May 24, 2022 - 08:00 AM EDT / 2022.05.24 1200 UTC
Wind: Calm:0
Visibility: greater than 7 mile(s):0
Temperature: 69 F (21 C)
Dew Point: 55 F (13 C)
Relative Humidity: 60%
Pressure (altimeter): 30.18 in. Hg (1022 hPa)
ob: SBGO 241200Z 00000KT CAVOK 21/13 Q1022
cycle: 12

Station Type Date Time Source
SBGO TAF 2022/05/24 12:30 UTC NOAA

TAF SBGO 240915Z 2412/2512 33002KT 8000 FEW025 TX30/2418Z TN15/2509Z
BECMG 2416/2418 33005KT
BECMG 2418/2420 33008KT
BECMG 2420/2422 33005KT
BECMG 2423/2501 01002KT
BECMG 2501/2503 33002KT
RMK PGM

Example: see airport list